Time;durP1;ratioP1;P1;durP2;ratioP2;P2;SDS_P1;SDS_P2;PMS_P1;PMS_P2;Temp;Humidity;BMP_temperature;BMP_pressure;BME280_temperature;BME280_humidity;BME280_pressure;Samples;Min_cycle;Max_cycle;Signal;HPM_P1;HPM_P2
2022/09/10 00:00:33;;;;;;;18.95;8.57;;;;;;;13.62;100.00;101215.31;4996117;28;20444;-89
2022/09/10 00:03:04;;;;;;;15.65;8.55;;;;;;;13.45;100.00;101219.47;4976599;28;20051;-90
2022/09/10 00:05:41;;;;;;;16.35;7.38;;;;;;;13.72;100.00;101227.13;4979609;28;20050;-89
2022/09/10 00:08:08;;;;;;;15.13;7.63;;;;;;;13.51;100.00;101197.34;4977195;28;20109;-90
2022/09/10 00:10:39;;;;;;;14.23;6.63;;;;;;;13.74;100.00;101216.53;4979468;28;20046;-90
2022/09/10 00:13:08;;;;;;;13.05;6.53;;;;;;;13.93;100.00;101235.03;4995931;28;20053;-90
2022/09/10 00:15:40;;;;;;;13.82;6.90;;;;;;;13.59;100.00;101208.38;4979361;28;20074;-89
2022/09/10 00:18:08;;;;;;;15.10;7.97;;;;;;;13.74;100.00;101237.59;4978606;28;20058;-89
2022/09/10 00:21:01;;;;;;;15.40;7.63;;;;;;;13.80;100.00;101232.94;4979287;28;20043;-89
2022/09/10 00:23:28;;;;;;;17.48;6.90;;;;;;;13.78;100.00;101239.19;4978798;28;20550;-89
2022/09/10 00:25:56;;;;;;;16.48;7.32;;;;;;;13.77;100.00;101232.22;4979155;28;20049;-88
2022/09/10 00:28:26;;;;;;;16.42;7.03;;;;;;;13.64;100.00;101224.00;4973480;28;20046;-88
2022/09/10 00:30:54;;;;;;;16.17;7.78;;;;;;;13.62;100.00;101221.41;4966079;28;20109;-89
2022/09/10 00:33:22;;;;;;;14.07;6.82;;;;;;;13.63;100.00;101228.41;4975672;28;20058;-89
2022/09/10 00:35:49;;;;;;;18.17;7.95;;;;;;;13.45;100.00;101219.47;4990498;28;20050;-89
2022/09/10 00:38:17;;;;;;;17.25;6.80;;;;;;;13.51;100.00;101218.41;4966709;28;20125;-89
2022/09/10 00:40:44;;;;;;;12.95;6.80;;;;;;;13.47;100.00;101233.47;4978477;28;20132;-89
2022/09/10 00:43:19;;;;;;;16.70;7.10;;;;;;;13.52;100.00;101235.88;4995639;28;20046;-89
2022/09/10 00:45:51;;;;;;;14.07;7.18;;;;;;;13.50;100.00;101231.63;4979044;28;20050;-89
2022/09/10 00:48:25;;;;;;;11.48;6.10;;;;;;;13.68;100.00;101222.94;4982546;28;20050;-90
2022/09/10 00:50:53;;;;;;;14.98;7.05;;;;;;;13.50;100.00;101235.09;4979209;28;20382;-89
2022/09/10 00:53:25;;;;;;;13.13;6.20;;;;;;;13.52;100.00;101220.09;4978214;28;20053;-88
2022/09/10 00:55:55;;;;;;;16.35;6.35;;;;;;;13.71;100.00;101217.53;4978673;28;20109;-90
2022/09/10 00:58:24;;;;;;;13.20;6.55;;;;;;;13.57;100.00;101222.53;4995223;28;20496;-89
2022/09/10 01:00:56;;;;;;;14.55;5.32;;;;;;;13.65;100.00;101215.16;4978254;28;20050;-90
2022/09/10 01:03:24;;;;;;;14.32;6.15;;;;;;;13.48;100.00;101227.25;4977345;28;20097;-90
2022/09/10 01:05:53;;;;;;;14.88;6.60;;;;;;;13.52;100.00;101232.41;4978736;28;20058;-90
2022/09/10 01:08:20;;;;;;;10.88;5.78;;;;;;;13.35;100.00;101207.66;4975825;28;20116;-90
2022/09/10 01:11:18;;;;;;;14.30;5.75;;;;;;;13.50;100.00;101240.34;4977939;28;20042;-90
2022/09/10 01:14:08;;;;;;;13.10;6.60;;;;;;;13.31;100.00;101235.00;4995030;28;20050;-90
2022/09/10 01:16:47;;;;;;;14.95;6.65;;;;;;;13.37;100.00;101231.25;4995181;28;20085;-90
2022/09/10 01:19:45;;;;;;;13.57;6.70;;;;;;;13.48;100.00;101234.31;4993072;28;20108;-90
2022/09/10 01:22:53;;;;;;;12.85;6.20;;;;;;;13.48;100.00;101231.66;4977756;28;20514;-90
2022/09/10 01:25:47;;;;;;;14.82;7.32;;;;;;;13.31;100.00;101224.47;4931531;29;20060;-90
2022/09/10 01:28:29;;;;;;;13.43;7.05;;;;;;;13.33;100.00;101229.66;4925542;29;20533;-89
2022/09/10 01:31:10;;;;;;;13.65;7.82;;;;;;;13.18;100.00;101216.19;4959088;28;20074;-90
2022/09/10 01:33:44;;;;;;;15.02;8.02;;;;;;;13.25;100.00;101232.59;4973807;28;20405;-90
2022/09/10 01:36:16;;;;;;;16.20;8.35;;;;;;;13.25;100.00;101243.09;4975127;28;20054;-90
2022/09/10 01:38:43;;;;;;;14.70;7.47;;;;;;;13.10;100.00;101213.00;4966334;28;20507;-90
2022/09/10 01:41:11;;;;;;;15.07;7.93;;;;;;;13.44;100.00;101224.84;4977816;28;20393;-90
2022/09/10 01:43:38;;;;;;;17.77;8.20;;;;;;;13.23;100.00;101242.31;4963794;28;20046;-90
2022/09/10 01:46:24;;;;;;;17.65;7.85;;;;;;;13.42;100.00;101239.81;4994393;28;20054;-90
2022/09/10 01:49:30;;;;;;;12.75;6.40;;;;;;;13.48;100.00;101243.03;4973560;28;20503;-89
2022/09/10 01:52:09;;;;;;;15.10;8.73;;;;;;;13.44;100.00;101243.25;4915338;29;20052;-89
2022/09/10 01:54:45;;;;;;;13.13;7.30;;;;;;;13.23;100.00;101216.03;4914931;29;20802;-90
2022/09/10 01:57:29;;;;;;;15.02;6.63;;;;;;;13.62;100.00;101255.63;4940556;28;20050;-89
2022/09/10 02:00:02;;;;;;;;;;;;;;;13.56;100.00;101260.28;4978187;28;20836;-89
2022/09/10 02:02:40;;;;;;;14.88;7.00;;;;;;;13.44;100.00;101252.00;4977042;28;19929;-89
2022/09/10 02:05:09;;;;;;;13.75;5.65;;;;;;;13.23;100.00;101192.38;4972717;28;20050;-89
2022/09/10 02:07:38;;;;;;;15.07;6.72;;;;;;;13.47;100.00;101212.41;4994080;28;20054;-88
2022/09/10 02:10:07;;;;;;;15.95;7.32;;;;;;;13.28;100.00;101238.56;4977091;28;20400;-89
2022/09/10 02:12:35;;;;;;;19.98;8.35;;;;;;;13.40;100.00;101265.31;4977177;28;20447;-89
2022/09/10 02:15:04;;;;;;;13.30;6.60;;;;;;;13.55;100.00;101262.06;4993383;28;20444;-88
2022/09/10 02:17:35;;;;;;;15.73;7.00;;;;;;;13.64;100.00;101259.03;4975383;28;20468;-89
2022/09/10 02:20:05;;;;;;;14.82;7.53;;;;;;;13.63;100.00;101259.97;4975930;28;20054;-89
2022/09/10 02:22:35;;;;;;;15.23;6.70;;;;;;;13.63;100.00;101267.88;4975830;28;20105;-87
2022/09/10 02:25:03;;;;;;;15.68;7.70;;;;;;;13.39;100.00;101274.16;4976424;28;20058;-89
2022/09/10 02:27:30;;;;;;;15.45;7.18;;;;;;;13.41;100.00;101278.41;4971042;28;20623;-89
2022/09/10 02:29:56;;;;;;;13.25;7.18;;;;;;;13.27;100.00;101242.13;4977076;28;20463;-89
2022/09/10 02:32:23;;;;;;;14.13;6.00;;;;;;;13.68;100.00;101268.50;4976512;28;20051;-88
2022/09/10 02:34:50;;;;;;;13.25;6.40;;;;;;;13.53;100.00;101256.00;4968912;28;20050;-89
2022/09/10 02:37:19;;;;;;;18.50;7.97;;;;;;;13.41;100.00;101264.41;4975991;28;20058;-90
2022/09/10 02:39:45;;;;;;;13.35;6.07;;;;;;;13.40;100.00;101263.56;4974892;28;20063;-90
2022/09/10 02:42:15;;;;;;;13.93;6.55;;;;;;;13.52;100.00;101256.06;4972825;28;20054;-89
2022/09/10 02:44:43;;;;;;;14.18;6.85;;;;;;;13.46;100.00;101257.19;4973578;28;20050;-90
2022/09/10 02:47:10;;;;;;;14.27;7.25;;;;;;;13.40;100.00;101276.72;4971393;28;20058;-90
2022/09/10 02:49:37;;;;;;;13.75;6.10;;;;;;;13.34;100.00;101249.81;4976029;28;20054;-88
2022/09/10 02:52:03;;;;;;;18.92;7.78;;;;;;;13.34;100.00;101261.16;4993067;28;20053;-89
2022/09/10 02:54:31;;;;;;;16.55;6.90;;;;;;;13.31;100.00;101263.91;4975761;28;20050;-90
2022/09/10 02:56:58;;;;;;;15.13;6.35;;;;;;;13.29;100.00;101271.84;4975890;28;20576;-90
2022/09/10 02:59:24;;;;;;;18.10;7.95;;;;;;;13.15;100.00;101252.28;4976373;28;20101;-90
2022/09/10 03:01:53;;;;;;;14.70;7.10;;;;;;;13.26;100.00;101271.97;4976045;28;20042;-89
2022/09/10 03:04:20;;;;;;;16.52;7.80;;;;;;;13.46;100.00;101259.81;4975111;28;20050;-89
2022/09/10 03:06:48;;;;;;;13.32;6.65;;;;;;;13.10;100.00;101248.06;4975468;28;20101;-90
2022/09/10 03:09:15;;;;;;;14.75;6.60;;;;;;;13.30;100.00;101252.50;4966746;28;20056;-87
2022/09/10 03:11:42;;;;;;;20.63;7.50;;;;;;;13.23;100.00;101276.50;4976111;28;20046;-89
2022/09/10 03:14:09;;;;;;;18.45;7.55;;;;;;;13.38;100.00;101286.41;4976013;28;20061;-89
2022/09/10 03:16:36;;;;;;;16.50;6.95;;;;;;;13.40;100.00;101271.47;4976030;28;20057;-89
2022/09/10 03:19:03;;;;;;;14.15;7.20;;;;;;;13.32;100.00;101262.16;4972146;28;20058;-89
2022/09/10 03:21:29;;;;;;;12.90;5.80;;;;;;;13.32;100.00;101272.69;4976035;28;20444;-89
2022/09/10 03:23:56;;;;;;;14.95;6.20;;;;;;;13.28;100.00;101248.25;4965916;28;20496;-89
2022/09/10 03:26:24;;;;;;;11.75;6.63;;;;;;;13.37;100.00;101284.72;4975081;28;20101;-89
2022/09/10 03:28:51;;;;;;;15.23;7.40;;;;;;;13.05;100.00;101225.50;4986900;28;20137;-89
2022/09/10 03:31:18;;;;;;;17.52;8.15;;;;;;;13.25;100.00;101274.66;4975284;28;20132;-90
2022/09/10 03:33:45;;;;;;;14.75;6.68;;;;;;;13.29;100.00;101245.53;4974954;28;20145;-88
2022/09/10 03:36:12;;;;;;;14.85;7.63;;;;;;;13.21;100.00;101210.81;4992132;28;20054;-88
2022/09/10 03:38:39;;;;;;;16.58;6.80;;;;;;;13.35;100.00;101256.75;4987998;28;20050;-88
2022/09/10 03:41:06;;;;;;;16.17;7.70;;;;;;;13.29;100.00;101265.72;4975296;28;20054;-88
2022/09/10 03:43:33;;;;;;;14.10;6.82;;;;;;;13.34;100.00;101269.06;4974763;28;20053;-89
2022/09/10 03:46:01;;;;;;;15.68;7.35;;;;;;;13.14;100.00;101259.31;4974471;28;20050;-89
2022/09/10 03:48:28;;;;;;;14.85;7.50;;;;;;;13.09;100.00;101272.63;4965868;28;20543;-89
2022/09/10 03:50:55;;;;;;;18.17;7.97;;;;;;;12.99;100.00;101250.25;4973191;28;20108;-89
2022/09/10 03:53:22;;;;;;;13.60;6.53;;;;;;;12.91;100.00;101262.84;4975235;28;20539;-89
2022/09/10 03:55:50;;;;;;;14.45;6.55;;;;;;;13.03;100.00;101257.13;4975490;28;20055;-88
2022/09/10 03:58:17;;;;;;;13.10;6.97;;;;;;;12.88;100.00;101255.94;4974952;28;20062;-89
2022/09/10 04:00:45;;;;;;;15.07;7.32;;;;;;;12.81;100.00;101250.97;4975583;28;20526;-89
2022/09/10 04:03:13;;;;;;;14.98;7.22;;;;;;;13.06;100.00;101271.91;4970599;28;20082;-90
2022/09/10 04:05:44;;;;;;;15.70;7.30;;;;;;;13.11;100.00;101276.06;4971324;28;20101;-90
2022/09/10 04:08:12;;;;;;;14.95;6.63;;;;;;;13.15;100.00;101282.03;4961249;28;20478;-89
2022/09/10 04:10:40;;;;;;;12.90;7.05;;;;;;;12.95;100.00;101274.97;4975319;28;20042;-89
2022/09/10 04:13:08;;;;;;;14.73;6.45;;;;;;;12.98;100.00;101266.97;4974976;28;20053;-89
2022/09/10 04:15:36;;;;;;;13.68;6.78;;;;;;;13.13;100.00;101288.31;4975256;28;20056;-89
2022/09/10 04:18:04;;;;;;;14.48;7.07;;;;;;;12.78;100.00;101275.59;4974497;28;20047;-89
2022/09/10 04:20:32;;;;;;;15.35;6.45;;;;;;;12.96;100.00;101287.19;4972691;28;20054;-89
2022/09/10 04:22:59;;;;;;;12.00;6.05;;;;;;;12.96;100.00;101284.56;4991586;28;20042;-88
2022/09/10 04:25:26;;;;;;;14.50;6.38;;;;;;;13.21;100.00;101273.94;4975203;28;20050;-88
2022/09/10 04:27:53;;;;;;;11.15;4.68;;;;;;;13.31;100.00;101279.69;4971810;28;20062;-88
2022/09/10 04:30:20;;;;;;;13.80;5.80;;;;;;;13.22;100.00;101299.28;4975068;28;20054;-88
2022/09/10 04:32:49;;;;;;;14.38;6.50;;;;;;;13.13;100.00;101307.56;4975098;28;20046;-89
2022/09/10 04:35:15;;;;;;;10.25;4.28;;;;;;;13.43;100.00;101312.53;4989554;28;20054;-87
2022/09/10 04:37:42;;;;;;;13.85;6.32;;;;;;;13.13;100.00;101297.03;4959576;28;20054;-88
2022/09/10 04:40:09;;;;;;;12.30;5.72;;;;;;;13.17;100.00;101303.03;4969689;28;20101;-88
2022/09/10 04:42:36;;;;;;;15.80;6.00;;;;;;;13.27;100.00;101317.53;4978823;28;20056;-88
2022/09/10 04:45:04;;;;;;;13.48;5.68;;;;;;;13.42;100.00;101306.44;4995975;28;20050;-88
2022/09/10 04:47:30;;;;;;;12.75;6.13;;;;;;;13.25;100.00;101314.97;4977906;28;20058;-87
2022/09/10 04:49:57;;;;;;;15.57;5.43;;;;;;;13.44;100.00;101309.84;4994858;28;20054;-88
2022/09/10 04:52:24;;;;;;;13.32;5.45;;;;;;;13.42;100.00;101300.28;4977771;28;20054;-88
2022/09/10 04:54:51;;;;;;;16.20;6.28;;;;;;;13.38;100.00;101314.50;4977689;28;20050;-88
2022/09/10 04:57:17;;;;;;;11.57;5.65;;;;;;;13.32;100.00;101298.97;4989923;28;20098;-88
2022/09/10 04:59:44;;;;;;;14.15;6.13;;;;;;;13.21;100.00;101302.84;4975642;28;20105;-88
2022/09/10 05:02:11;;;;;;;14.32;6.03;;;;;;;13.29;100.00;101311.28;4977905;28;20058;-88
2022/09/10 05:04:38;;;;;;;13.90;5.20;;;;;;;13.27;100.00;101305.22;4993913;28;20066;-89
2022/09/10 05:07:05;;;;;;;12.02;5.78;;;;;;;13.16;100.00;101288.19;4962931;28;20609;-90
2022/09/10 05:09:32;;;;;;;12.68;5.22;;;;;;;13.36;100.00;101290.88;4973961;28;20061;-90
2022/09/10 05:12:02;;;;;;;15.15;5.57;;;;;;;12.98;100.00;101280.09;4971789;28;20047;-90
2022/09/10 05:14:29;;;;;;;13.07;5.38;;;;;;;13.37;100.00;101318.03;4971352;28;20046;-88
2022/09/10 05:16:56;;;;;;;12.90;5.72;;;;;;;13.45;100.00;101329.97;4990253;28;20476;-88
2022/09/10 05:19:22;;;;;;;9.30;3.60;;;;;;;13.61;100.00;101311.78;4968080;28;20450;-89
2022/09/10 05:21:49;;;;;;;20.83;6.55;;;;;;;13.40;100.00;101294.25;4971554;28;20058;-88
2022/09/10 05:24:16;;;;;;;11.45;4.85;;;;;;;13.26;100.00;101302.66;4971794;28;20050;-88
2022/09/10 05:26:43;;;;;;;13.88;4.85;;;;;;;13.32;100.00;101293.72;4970104;28;20124;-88
2022/09/10 05:29:12;;;;;;;13.98;4.93;;;;;;;13.51;100.00;101333.28;4975901;28;20444;-88
2022/09/10 05:31:39;;;;;;;10.90;4.97;;;;;;;13.12;100.00;101300.59;4968236;28;20050;-88
2022/09/10 05:34:07;;;;;;;13.57;5.68;;;;;;;13.07;100.00;101292.88;4971529;28;20100;-88
2022/09/10 05:36:40;;;;;;;10.02;4.72;;;;;;;13.16;100.00;101291.66;4984808;28;20461;-89
2022/09/10 05:39:07;;;;;;;11.43;5.15;;;;;;;13.06;100.00;101291.16;4966439;28;20051;-89
2022/09/10 05:41:36;;;;;;;11.13;4.85;;;;;;;13.20;100.00;101309.03;4980556;28;20640;-89
2022/09/10 05:44:05;;;;;;;12.30;4.43;;;;;;;13.55;100.00;101345.41;4978136;28;20461;-88
2022/09/10 05:46:32;;;;;;;13.52;5.53;;;;;;;13.18;100.00;101339.78;4988946;28;20057;-88
2022/09/10 05:48:59;;;;;;;12.98;5.78;;;;;;;12.85;100.00;101305.97;4987692;28;20060;-88
2022/09/10 05:51:28;;;;;;;13.10;5.40;;;;;;;13.01;100.00;101295.72;4972738;28;20061;-88
2022/09/10 05:53:56;;;;;;;14.95;5.63;;;;;;;13.16;100.00;101311.84;4974677;28;20047;-88
2022/09/10 05:56:24;;;;;;;15.10;5.15;;;;;;;13.25;100.00;101332.50;4973067;28;20455;-88
2022/09/10 05:58:51;;;;;;;14.18;5.22;;;;;;;13.23;100.00;101308.91;4989805;28;20057;-89
2022/09/10 06:01:18;;;;;;;15.70;5.82;;;;;;;13.27;100.00;101304.38;4986519;28;20055;-88
2022/09/10 06:03:45;;;;;;;14.57;5.10;;;;;;;13.10;100.00;101287.50;4974559;28;20048;-90
2022/09/10 06:06:11;;;;;;;18.42;6.30;;;;;;;12.91;100.00;101291.78;4968629;28;20726;-88
2022/09/10 06:08:38;;;;;;;17.75;6.03;;;;;;;13.24;100.00;101338.69;4972368;28;20496;-87
2022/09/10 06:11:06;;;;;;;14.75;5.45;;;;;;;13.26;100.00;101321.94;4968016;28;20054;-90
2022/09/10 06:13:34;;;;;;;13.50;5.25;;;;;;;13.29;100.00;101327.06;4971642;28;20050;-88
2022/09/10 06:16:01;;;;;;;11.57;4.80;;;;;;;13.44;100.00;101311.63;4968705;28;20050;-89
2022/09/10 06:18:28;;;;;;;12.00;4.15;;;;;;;13.36;100.00;101305.81;4972228;28;20061;-88
2022/09/10 06:21:12;;;;;;;9.57;4.18;;;;;;;13.59;100.00;101334.69;4973525;28;20061;-88
2022/09/10 06:23:39;;;;;;;;;;;;;;;13.95;100.00;101355.16;4986176;28;20042;-89
2022/09/10 06:26:10;;;;;;;13.73;4.60;;;;;;;13.61;100.00;101358.28;4973780;28;19922;-89
2022/09/10 06:28:37;;;;;;;12.43;4.25;;;;;;;13.66;100.00;101362.44;4990554;28;20050;-89
2022/09/10 06:31:06;;;;;;;11.18;3.70;;;;;;;13.46;100.00;101333.47;4972035;28;20050;-89
2022/09/10 06:33:33;;;;;;;9.75;3.50;;;;;;;13.54;100.00;101325.25;4966080;28;20499;-89
2022/09/10 06:36:02;;;;;;;10.38;3.53;;;;;;;13.64;100.00;101345.03;4975006;28;20054;-86
2022/09/10 06:38:32;;;;;;;9.52;3.30;;;;;;;13.91;100.00;101364.06;4970673;28;20408;-88
2022/09/10 06:41:03;;;;;;;13.38;4.05;;;;;;;13.51;100.00;101317.47;4970518;28;20050;-88
2022/09/10 06:43:38;;;;;;;8.20;3.28;;;;;;;13.36;100.00;101300.56;4989045;28;20055;-89
2022/09/10 06:46:12;;;;;;;9.07;4.35;;;;;;;13.83;100.00;101361.78;4966444;28;20050;-88
2022/09/10 06:49:02;;;;;;;12.18;4.13;;;;;;;13.54;100.00;101325.25;4990141;28;20058;-89
2022/09/10 06:51:29;;;;;;;10.35;3.80;;;;;;;13.48;100.00;101307.97;4973156;28;20046;-89
2022/09/10 06:53:56;;;;;;;13.60;4.32;;;;;;;13.59;100.00;101324.16;4973744;28;20050;-89
2022/09/10 06:56:23;;;;;;;10.32;4.35;;;;;;;13.68;100.00;101334.28;4970987;28;20456;-89
2022/09/10 06:58:50;;;;;;;12.30;4.57;;;;;;;14.08;100.00;101313.34;4991504;28;20480;-89
2022/09/10 07:01:22;;;;;;;11.75;4.10;;;;;;;15.06;100.00;101354.72;4974956;28;20054;-89
2022/09/10 07:03:57;;;;;;;9.35;3.83;;;;;;;15.46;100.00;101352.84;4971858;28;20054;-89
2022/09/10 07:06:26;;;;;;;10.68;3.72;;;;;;;15.78;100.00;101369.75;4983520;28;20054;-89
2022/09/10 07:08:56;;;;;;;9.80;3.65;;;;;;;15.54;100.00;101345.38;4974585;28;20054;-89
2022/09/10 07:11:26;;;;;;;11.10;4.13;;;;;;;15.87;100.00;101371.09;4983952;28;20051;-89
2022/09/10 07:13:53;;;;;;;8.45;3.10;;;;;;;16.34;100.00;101378.38;4970044;28;20149;-89
2022/09/10 07:16:22;;;;;;;10.27;3.47;;;;;;;16.41;100.00;101312.84;4973605;28;20050;-89
2022/09/10 07:18:51;;;;;;;7.82;2.88;;;;;;;16.80;100.00;101324.88;4986532;28;20508;-89
2022/09/10 07:21:18;;;;;;;8.18;2.10;;;;;;;17.40;100.00;101382.47;4964456;28;20118;-89
2022/09/10 07:23:50;;;;;;;6.60;2.35;;;;;;;17.70;100.00;101329.53;4967539;28;20051;-90
2022/09/10 07:26:18;;;;;;;6.03;1.98;;;;;;;17.33;100.00;101387.22;4975160;28;20057;-90
2022/09/10 07:28:45;;;;;;;11.30;2.50;;;;;;;17.70;100.00;101384.31;4971452;28;20109;-89
2022/09/10 07:31:26;;;;;;;9.65;2.30;;;;;;;18.01;100.00;101357.78;4974907;28;20047;-90
2022/09/10 07:33:54;;;;;;;8.57;2.53;;;;;;;18.16;100.00;101381.66;4965132;28;20486;-89
2022/09/10 07:36:21;;;;;;;11.50;2.63;;;;;;;17.56;100.00;101364.75;4974123;28;20042;-87
2022/09/10 07:38:50;;;;;;;6.88;2.42;;;;;;;17.77;100.00;101353.88;4969774;28;20096;-89
2022/09/10 07:41:18;;;;;;;9.32;2.33;;;;;;;17.42;100.00;101362.03;4961882;28;20054;-89
2022/09/10 07:43:44;;;;;;;9.13;2.30;;;;;;;17.82;100.00;101339.41;4974226;28;20089;-88
2022/09/10 07:46:19;;;;;;;9.77;2.40;;;;;;;17.91;100.00;101377.81;4970160;28;20051;-88
2022/09/10 07:48:47;;;;;;;7.75;2.20;;;;;;;17.71;100.00;101373.63;4973751;28;20400;-88
2022/09/10 07:51:18;;;;;;;8.55;2.22;;;;;;;16.89;100.00;101351.72;4974435;28;20050;-89
2022/09/10 07:53:52;;;;;;;7.93;1.95;;;;;;;17.37;100.00;101404.66;4975002;28;20055;-89
2022/09/10 07:56:19;;;;;;;8.00;2.40;;;;;;;17.31;100.00;101397.06;4975452;28;20061;-88
2022/09/10 07:58:46;;;;;;;9.05;2.15;;;;;;;17.18;100.00;101402.19;4990485;28;20046;-89
2022/09/10 08:01:12;;;;;;;7.90;2.50;;;;;;;16.87;100.00;101380.03;4972701;28;20062;-87
2022/09/10 08:03:43;;;;;;;8.95;2.15;;;;;;;17.58;100.00;101420.28;4966274;28;20047;-89
2022/09/10 08:06:11;;;;;;;13.18;2.58;;;;;;;17.44;100.00;101410.44;4969283;28;20059;-89
2022/09/10 08:08:39;;;;;;;5.63;2.10;;;;;;;17.90;100.00;101392.00;4972146;28;20050;-89
2022/09/10 08:11:11;;;;;;;6.80;1.80;;;;;;;17.93;100.00;101378.56;4969502;28;20101;-88
2022/09/10 08:13:44;;;;;;;5.95;1.98;;;;;;;17.82;100.00;101404.78;4975222;28;20057;-89
2022/09/10 08:16:14;;;;;;;7.15;2.10;;;;;;;18.27;100.00;101378.38;4975908;28;20513;-88
2022/09/10 08:18:42;;;;;;;7.50;1.88;;;;;;;18.66;100.00;101374.25;4995713;28;20151;-89
2022/09/10 08:21:09;;;;;;;5.07;1.67;;;;;;;18.69;100.00;101366.09;4974029;28;20057;-88
2022/09/10 08:23:38;;;;;;;9.38;1.80;;;;;;;18.37;100.00;101377.72;4991185;28;20050;-88
2022/09/10 08:26:07;;;;;;;7.68;1.98;;;;;;;18.39;100.00;101383.78;4989438;28;20050;-88
2022/09/10 08:28:34;;;;;;;6.32;1.90;;;;;;;18.75;100.00;101432.03;4972047;28;20066;-88
2022/09/10 08:31:08;;;;;;;6.30;1.88;;;;;;;18.51;100.00;101432.56;4978178;28;20501;-88
2022/09/10 08:33:38;;;;;;;4.95;1.67;;;;;;;18.95;100.00;101401.66;4987866;28;20144;-88
2022/09/10 08:36:15;;;;;;;8.63;2.10;;;;;;;17.89;100.00;101394.75;4989176;28;20066;-88
2022/09/10 08:38:43;;;;;;;7.13;2.33;;;;;;;18.12;100.00;101411.94;4995574;28;20054;-88
2022/09/10 08:41:20;;;;;;;9.15;2.38;;;;;;;18.19;100.00;101453.03;4975585;28;20046;-89
2022/09/10 08:43:53;;;;;;;6.93;1.67;;;;;;;18.54;100.00;101448.31;4972406;28;20051;-88
2022/09/10 08:46:31;;;;;;;9.38;2.15;;;;;;;18.54;100.00;101389.97;4978703;28;20053;-88
2022/09/10 08:49:26;;;;;;;8.57;1.90;;;;;;;18.22;100.00;101421.06;4995348;28;20120;-89
2022/09/10 08:51:59;;;;;;;10.63;2.30;;;;;;;19.02;100.00;101444.59;4995303;28;20054;-89
2022/09/10 08:54:33;;;;;;;7.38;2.00;;;;;;;18.49;100.00;101412.41;4987290;28;20073;-88
2022/09/10 08:57:01;;;;;;;8.52;1.88;;;;;;;19.13;100.00;101389.88;4978059;28;20049;-89
2022/09/10 08:59:34;;;;;;;7.10;2.15;;;;;;;18.96;100.00;101409.53;4972838;28;20050;-89
2022/09/10 09:02:17;;;;;;;7.15;1.85;;;;;;;18.67;100.00;101405.97;4975122;28;20057;-89
2022/09/10 09:05:56;;;;;;;8.73;1.83;;;;;;;18.17;100.00;101413.38;4973805;28;20057;-89
2022/09/10 09:08:37;;;;;;;5.57;1.63;;;;;;;18.11;100.00;101437.56;4951800;28;20106;-88
2022/09/10 09:11:14;;;;;;;7.85;1.73;;;;;;;18.17;100.00;101433.72;4988484;28;20151;-89
2022/09/10 09:14:19;;;;;;;7.13;2.00;;;;;;;18.54;100.00;101458.91;4973490;28;20043;-88
2022/09/10 09:17:22;;;;;;;5.35;1.52;;;;;;;18.16;100.00;101464.66;4950274;28;20061;-88
2022/09/10 09:20:14;;;;;;;6.85;2.00;;;;;;;17.89;100.00;101413.28;4968179;28;20058;-89
2022/09/10 09:23:03;;;;;;;5.45;2.30;;;;;;;18.21;100.00;101467.06;4976751;28;20390;-88
2022/09/10 09:25:46;;;;;;;8.70;1.80;;;;;;;18.69;100.00;101466.91;4982313;28;20130;-88
2022/09/10 09:28:35;;;;;;;7.07;1.63;;;;;;;18.56;100.00;101434.97;4992064;28;20070;-87
2022/09/10 09:31:11;;;;;;;4.28;1.30;;;;;;;18.33;100.00;101391.28;4983606;28;20050;-89
2022/09/10 09:33:40;;;;;;;7.35;1.65;;;;;;;18.62;100.00;101418.66;4998149;28;20129;-89
2022/09/10 09:36:15;;;;;;;5.15;1.63;;;;;;;18.36;100.00;101444.97;4994229;28;20101;-89
2022/09/10 09:38:47;;;;;;;5.28;1.92;;;;;;;18.67;100.00;101464.34;4974431;28;20043;-88
2022/09/10 09:41:29;;;;;;;6.35;1.70;;;;;;;18.45;100.00;101402.91;4970075;28;20047;-89
2022/09/10 09:44:10;;;;;;;9.05;1.50;;;;;;;18.89;100.00;101429.44;4977674;28;20471;-89
2022/09/10 09:46:37;;;;;;;4.55;1.30;;;;;;;19.43;100.00;101425.22;4968502;28;20065;-89
2022/09/10 09:49:09;;;;;;;3.60;1.50;;;;;;;19.19;100.00;101419.66;4994905;28;20050;-88
2022/09/10 09:51:36;;;;;;;3.78;1.33;;;;;;;19.20;100.00;101397.47;4974700;28;20093;-89
2022/09/10 09:54:08;;;;;;;4.10;1.30;;;;;;;19.34;100.00;101442.56;4972823;28;20170;-90
2022/09/10 09:56:58;;;;;;;4.25;1.20;;;;;;;19.12;100.00;101414.75;4984697;28;20073;-89
2022/09/10 09:59:30;;;;;;;4.00;1.30;;;;;;;18.85;100.00;101390.75;4964996;28;20057;-89
2022/09/10 10:02:04;;;;;;;3.05;1.27;;;;;;;18.85;100.00;101406.69;4977479;28;20081;-89
2022/09/10 10:04:32;;;;;;;5.68;1.10;;;;;;;19.53;100.00;101437.78;4986432;28;20042;-89
2022/09/10 10:07:00;;;;;;;4.38;1.40;;;;;;;19.08;100.00;101438.91;4992944;28;20117;-89
2022/09/10 10:09:30;;;;;;;2.45;1.08;;;;;;;19.11;100.00;101434.25;4973259;28;20050;-89
2022/09/10 10:12:13;;;;;;;3.08;1.10;;;;;;;19.21;100.00;101447.81;4987690;28;20050;-89
2022/09/10 10:14:41;;;;;;;3.05;1.10;;;;;;;18.74;100.00;101431.19;4976985;28;20050;-89
2022/09/10 10:17:23;;;;;;;2.95;1.10;;;;;;;19.41;100.00;101443.88;4972476;28;20053;-89
2022/09/10 10:20:03;;;;;;;5.25;1.20;;;;;;;19.54;100.00;101438.63;4971796;28;20046;-89
2022/09/10 10:22:31;;;;;;;3.95;1.20;;;;;;;19.56;100.00;101420.78;4968972;28;20062;-89
2022/09/10 10:25:03;;;;;;;3.40;0.90;;;;;;;20.01;100.00;101450.66;4986635;28;20050;-88
2022/09/10 10:27:36;;;;;;;2.65;0.90;;;;;;;19.70;100.00;101418.09;4991900;28;20122;-89
2022/09/10 10:30:06;;;;;;;4.78;1.10;;;;;;;19.91;100.00;101455.72;4968802;28;20058;-89
2022/09/10 10:32:41;;;;;;;3.00;0.93;;;;;;;20.19;100.00;101411.38;4987690;28;20062;-88
2022/09/10 10:35:18;;;;;;;3.30;0.93;;;;;;;20.54;100.00;101448.03;4979645;28;20058;-88
2022/09/10 10:38:19;;;;;;;3.95;1.20;;;;;;;20.56;89.84;101447.91;4969314;28;20050;-89
2022/09/10 10:40:56;;;;;;;15.85;1.60;;;;;;;20.47;93.40;101412.16;4974396;28;20492;-89
2022/09/10 10:43:23;;;;;;;3.13;0.90;;;;;;;20.74;88.73;101446.66;4971247;28;20050;-89
2022/09/10 10:45:56;;;;;;;3.33;0.93;;;;;;;21.00;89.69;101442.19;4967976;28;20548;-88
2022/09/10 10:48:49;;;;;;;;;;;;;;;20.92;81.57;101446.34;4976569;28;20053;-89
2022/09/10 10:51:39;;;;;;;4.43;1.30;;;;;;;21.09;77.11;101434.50;4961752;28;19933;-89
2022/09/10 10:54:40;;;;;;;2.72;0.93;;;;;;;20.84;85.85;101442.41;4985170;28;20057;-89
2022/09/10 10:57:15;;;;;;;4.95;1.05;;;;;;;20.94;88.23;101445.28;4979613;28;20042;-90
2022/09/10 11:00:03;;;;;;;2.45;0.90;;;;;;;21.04;83.88;101434.84;4973954;28;20050;-89
2022/09/10 11:02:44;;;;;;;3.70;1.05;;;;;;;20.54;82.64;101385.97;4993116;28;20053;-90
2022/09/10 11:05:30;;;;;;;2.03;0.80;;;;;;;21.39;84.94;101412.81;4966011;28;20073;-90
2022/09/10 11:08:29;;;;;;;6.50;1.00;;;;;;;21.28;80.01;101423.38;4979858;28;20060;-90
2022/09/10 11:11:01;;;;;;;6.93;1.60;;;;;;;21.26;88.62;101431.47;4993009;28;20054;-89
2022/09/10 11:13:56;;;;;;;3.20;1.10;;;;;;;21.08;83.34;101428.31;4983983;28;20046;-90
2022/09/10 11:16:30;;;;;;;3.75;1.08;;;;;;;20.34;93.29;101433.41;4991155;28;20053;-89
2022/09/10 11:19:11;;;;;;;5.57;1.42;;;;;;;20.40;93.64;101416.19;4974024;28;20042;-90
2022/09/10 11:21:49;;;;;;;3.47;0.90;;;;;;;20.41;93.23;101436.50;4986809;28;20042;-91
2022/09/10 11:24:25;;;;;;;2.83;1.00;;;;;;;20.38;87.29;101432.25;4970282;28;20050;-91
2022/09/10 11:26:58;;;;;;;1.95;0.88;;;;;;;20.62;84.93;101426.22;4974108;28;20073;-92
2022/09/10 11:29:54;;;;;;;2.35;1.00;;;;;;;20.61;86.49;101404.09;4973119;28;20054;-91
2022/09/10 11:32:27;;;;;;;5.93;1.55;;;;;;;21.06;91.67;101419.59;4968159;28;20050;-92
2022/09/10 11:34:59;;;;;;;8.35;1.67;;;;;;;20.70;100.00;101384.00;4976925;28;20050;-90
2022/09/10 11:37:53;;;;;;;6.53;1.73;;;;;;;21.13;100.00;101417.38;4974928;28;20054;-91